createdAt,value
2018-09-04T00:00:05.601Z,1010.72
2018-09-04T00:01:05.578Z,1010.71
2018-09-04T00:02:05.566Z,1010.71
2018-09-04T00:03:05.545Z,1010.72
2018-09-04T00:04:05.536Z,1010.77
2018-09-04T00:05:05.520Z,1010.78
2018-09-04T00:06:05.502Z,1010.77
2018-09-04T00:07:05.792Z,1010.76
2018-09-04T00:08:05.472Z,1010.72
2018-09-04T00:09:05.776Z,1010.73
2018-09-04T00:10:05.439Z,1010.69
2018-09-04T00:11:05.427Z,1010.66
2018-09-04T00:12:05.429Z,1010.69
2018-09-04T00:13:05.393Z,1010.70
2018-09-04T00:14:05.702Z,1010.67
2018-09-04T00:15:05.365Z,1010.64
2018-09-04T00:16:05.346Z,1010.64
2018-09-04T00:17:05.771Z,1010.64
2018-09-04T00:18:05.320Z,1010.66
2018-09-04T00:19:05.301Z,1010.64
2018-09-04T00:20:05.287Z,1010.62
2018-09-04T00:21:05.271Z,1010.62
2018-09-04T00:22:05.292Z,1010.59
2018-09-04T00:23:05.238Z,1010.59
2018-09-04T00:24:05.233Z,1010.56
2018-09-04T00:25:05.222Z,1010.54
2018-09-04T00:26:05.196Z,1010.56
2018-09-04T00:27:05.182Z,1010.53
2018-09-04T00:28:05.161Z,1010.55
2018-09-04T00:29:05.150Z,1010.52
2018-09-04T00:30:05.137Z,1010.51
2018-09-04T00:31:05.124Z,1010.48
2018-09-04T00:32:05.100Z,1010.47
2018-09-04T00:33:05.084Z,1010.46
2018-09-04T00:34:05.081Z,1010.48
2018-09-04T00:35:05.383Z,1010.47
2018-09-04T00:36:05.068Z,1010.44
2018-09-04T00:37:05.559Z,1010.46
2018-09-04T00:38:05.332Z,1010.43
2018-09-04T00:39:05.714Z,1010.44
2018-09-04T00:40:04.980Z,1010.41
2018-09-04T00:41:05.163Z,1010.41
2018-09-04T00:42:04.949Z,1010.41
2018-09-04T00:43:05.136Z,1010.44
2018-09-04T00:44:05.228Z,1010.43
2018-09-04T00:45:05.232Z,1010.45
2018-09-04T00:46:04.901Z,1010.45
2018-09-04T00:47:04.870Z,1010.40
2018-09-04T00:48:05.177Z,1010.45
2018-09-04T00:49:05.158Z,1010.43
2018-09-04T00:50:05.060Z,1010.45
2018-09-04T00:51:05.110Z,1010.42
2018-09-04T00:52:04.797Z,1010.42
2018-09-04T00:53:04.791Z,1010.37
2018-09-04T00:55:04.750Z,1010.40
2018-09-04T00:56:04.743Z,1010.38
2018-09-04T00:57:04.718Z,1010.38
2018-09-04T00:58:04.710Z,1010.36
2018-09-04T00:59:04.784Z,1010.36
2018-09-04T01:00:04.665Z,1010.34
2018-09-04T01:01:04.977Z,1010.36
2018-09-04T01:03:05.139Z,1010.36
2018-09-04T01:04:05.346Z,1010.37
2018-09-04T01:06:04.891Z,1010.37
2018-09-04T01:07:05.284Z,1010.36
2018-09-04T01:08:04.880Z,1010.38
2018-09-04T01:09:04.854Z,1010.39
2018-09-04T01:10:04.740Z,1010.34
2018-09-04T01:12:04.816Z,1010.36
2018-09-04T01:13:04.692Z,1010.32
2018-09-04T01:14:04.751Z,1010.30
2018-09-04T01:15:04.433Z,1010.33
2018-09-04T01:16:04.451Z,1010.32
2018-09-04T01:17:04.405Z,1010.34
2018-09-04T01:18:04.389Z,1010.37
2018-09-04T01:19:04.387Z,1010.34
2018-09-04T01:20:04.354Z,1010.33
2018-09-04T01:21:04.683Z,1010.30
2018-09-04T01:22:04.523Z,1010.31
2018-09-04T01:23:04.304Z,1010.30
2018-09-04T01:24:04.290Z,1010.29
2018-09-04T01:25:04.596Z,1010.28
2018-09-04T01:26:04.263Z,1010.31
2018-09-04T01:27:04.969Z,1010.32
2018-09-04T01:28:04.431Z,1010.34
2018-09-04T01:29:04.537Z,1010.39
2018-09-04T01:30:04.211Z,1010.34
2018-09-04T01:31:04.194Z,1010.39
2018-09-04T01:32:04.195Z,1010.37
2018-09-04T01:33:04.348Z,1010.35
2018-09-04T01:34:04.883Z,1010.39
2018-09-04T01:35:04.430Z,1010.39
2018-09-04T01:36:04.431Z,1010.36
2018-09-04T01:37:04.087Z,1010.40
2018-09-04T01:38:04.395Z,1010.40
2018-09-04T01:39:04.370Z,1010.39
2018-09-04T01:40:04.264Z,1010.43
2018-09-04T01:41:04.748Z,1010.41
2018-09-04T01:42:04.541Z,1010.46
2018-09-04T01:45:04.285Z,1010.46
2018-09-04T01:46:04.262Z,1010.47
2018-09-04T01:48:03.947Z,1010.50
2018-09-04T01:49:03.937Z,1010.49
2018-09-04T01:51:04.608Z,1010.47
2018-09-04T01:52:03.873Z,1010.49
2018-09-04T01:53:04.060Z,1010.47
2018-09-04T01:58:04.090Z,1010.46
2018-09-04T01:59:03.748Z,1010.46
2018-09-04T02:00:03.734Z,1010.45
2018-09-04T02:01:03.749Z,1010.43
2018-09-04T02:02:04.020Z,1010.41
2018-09-04T02:03:03.698Z,1010.45
2018-09-04T02:04:03.667Z,1010.44
2018-09-04T02:05:03.681Z,1010.46
2018-09-04T02:06:03.947Z,1010.49
2018-09-04T02:07:03.625Z,1010.46
2018-09-04T02:08:03.606Z,1010.46
2018-09-04T02:10:03.589Z,1010.46
2018-09-04T02:11:03.566Z,1010.50
2018-09-04T02:12:03.747Z,1010.47
2018-09-04T02:13:03.529Z,1010.48
2018-09-04T02:14:03.529Z,1010.48
2018-09-04T02:15:03.501Z,1010.50
2018-09-04T02:16:03.483Z,1010.48
2018-09-04T02:17:03.702Z,1010.46
2018-09-04T02:18:03.460Z,1010.49
2018-09-04T02:19:03.767Z,1010.46
2018-09-04T02:20:03.420Z,1010.48
2018-09-04T02:21:03.407Z,1010.53
2018-09-04T02:22:03.416Z,1010.47
2018-09-04T02:24:03.659Z,1010.49
2018-09-04T02:25:03.647Z,1010.51
2018-09-04T02:26:03.655Z,1010.47
2018-09-04T02:27:03.317Z,1010.46
2018-09-04T02:28:03.629Z,1010.45
2018-09-04T02:29:03.296Z,1010.47
2018-09-04T02:30:03.468Z,1010.44
2018-09-04T02:32:03.438Z,1010.43
2018-09-04T02:33:03.304Z,1010.44
2018-09-04T02:34:03.232Z,1010.45
2018-09-04T02:35:03.189Z,1010.44
2018-09-04T02:36:03.185Z,1010.43
2018-09-04T02:37:03.680Z,1010.46
2018-09-04T02:38:03.143Z,1010.47
2018-09-04T02:39:03.451Z,1010.47
2018-09-04T02:40:03.111Z,1010.48
2018-09-04T02:41:03.430Z,1010.50
2018-09-04T02:42:03.402Z,1010.50
2018-09-04T02:43:03.082Z,1010.47
2018-09-04T02:44:03.374Z,1010.49
2018-09-04T02:45:03.237Z,1010.51
2018-09-04T02:46:03.019Z,1010.46
2018-09-04T02:47:03.020Z,1010.48
2018-09-04T02:48:03.014Z,1010.51
2018-09-04T02:49:03.291Z,1010.48
2018-09-04T02:50:02.961Z,1010.49
2018-09-04T02:51:03.270Z,1010.48
2018-09-04T02:52:02.938Z,1010.45
2018-09-04T02:53:02.910Z,1010.44
2018-09-04T02:54:03.218Z,1010.49
2018-09-04T02:55:02.878Z,1010.46
2018-09-04T02:56:03.188Z,1010.47
2018-09-04T02:57:03.167Z,1010.46
2018-09-04T02:58:02.835Z,1010.47
2018-09-04T02:59:02.824Z,1010.49
2018-09-04T03:00:02.802Z,1010.47
2018-09-04T03:01:02.796Z,1010.48
2018-09-04T03:02:02.772Z,1010.51
2018-09-04T03:03:02.755Z,1010.48
2018-09-04T03:04:02.743Z,1010.52
2018-09-04T03:05:02.791Z,1010.52
2018-09-04T03:06:02.712Z,1010.52
2018-09-04T03:07:02.701Z,1010.54
2018-09-04T03:08:02.681Z,1010.56
2018-09-04T03:09:02.666Z,1010.53
2018-09-04T03:10:03.169Z,1010.56
2018-09-04T03:11:02.666Z,1010.57
2018-09-04T03:12:02.933Z,1010.52
2018-09-04T03:13:02.634Z,1010.50
2018-09-04T03:15:02.909Z,1010.48
2018-09-04T03:16:02.573Z,1010.48
2018-09-04T03:17:02.542Z,1010.48
2018-09-04T03:18:02.540Z,1010.49
2018-09-04T03:19:02.511Z,1010.46
2018-09-04T03:20:02.508Z,1010.43
2018-09-04T03:21:02.479Z,1010.41
2018-09-04T03:22:02.469Z,1010.39
2018-09-04T03:23:02.495Z,1010.37
2018-09-04T03:24:02.431Z,1010.35
2018-09-04T03:25:02.424Z,1010.32
2018-09-04T03:26:02.704Z,1010.32
2018-09-04T03:27:02.382Z,1010.33
2018-09-04T03:28:02.368Z,1010.31
2018-09-04T03:29:02.351Z,1010.29
2018-09-04T03:30:02.372Z,1010.31
2018-09-04T03:31:02.341Z,1010.30
2018-09-04T03:32:02.310Z,1010.29
2018-09-04T03:33:02.287Z,1010.32
2018-09-04T03:34:02.275Z,1010.32
2018-09-04T03:35:02.260Z,1010.32
2018-09-04T03:36:02.243Z,1010.34
2018-09-04T03:37:02.552Z,1010.34
2018-09-04T03:38:02.212Z,1010.35
2018-09-04T03:39:02.528Z,1010.32
2018-09-04T03:40:02.177Z,1010.32
2018-09-04T03:41:02.178Z,1010.31
2018-09-04T03:42:02.148Z,1010.30
2018-09-04T03:43:02.154Z,1010.30
2018-09-04T03:44:02.116Z,1010.33
2018-09-04T03:45:02.138Z,1010.31
2018-09-04T03:46:02.087Z,1010.34
2018-09-04T03:47:02.069Z,1010.28
2018-09-04T03:48:02.376Z,1010.32
2018-09-04T03:49:02.041Z,1010.28
2018-09-04T03:50:02.045Z,1010.27
2018-09-04T03:51:02.007Z,1010.29
2018-09-04T03:52:01.990Z,1010.29
2018-09-04T03:53:01.978Z,1010.30
2018-09-04T03:54:01.969Z,1010.31
2018-09-04T03:55:01.968Z,1010.34
2018-09-04T03:56:01.928Z,1010.34
2018-09-04T03:57:01.911Z,1010.36
2018-09-04T03:58:02.217Z,1010.34
2018-09-04T03:59:01.918Z,1010.38
2018-09-04T04:00:02.186Z,1010.41
2018-09-04T04:01:02.172Z,1010.36
2018-09-04T04:02:02.151Z,1010.35
2018-09-04T04:03:02.538Z,1010.35
2018-09-04T04:04:02.123Z,1010.30
2018-09-04T04:05:01.816Z,1010.29
2018-09-04T04:06:01.769Z,1010.27
2018-09-04T04:07:02.072Z,1010.29
2018-09-04T04:08:01.741Z,1010.29
2018-09-04T04:09:01.722Z,1010.27
2018-09-04T04:10:01.706Z,1010.31
2018-09-04T04:11:01.695Z,1010.35
2018-09-04T04:12:01.762Z,1010.38
2018-09-04T04:13:01.977Z,1010.41
2018-09-04T04:14:01.650Z,1010.39
2018-09-04T04:15:01.685Z,1010.43
2018-09-04T04:20:01.870Z,1010.35
2018-09-04T04:21:01.856Z,1010.40
2018-09-04T04:22:01.823Z,1010.38
2018-09-04T04:23:01.829Z,1010.36
2018-09-04T04:24:01.818Z,1010.34
2018-09-04T04:28:02.349Z,1010.40
2018-09-04T04:29:01.439Z,1010.46
2018-09-04T04:30:02.128Z,1010.46
2018-09-04T04:31:01.704Z,1010.47
2018-09-04T04:32:01.679Z,1010.48
2018-09-04T04:33:01.981Z,1010.50
2018-09-04T04:34:01.663Z,1010.50
2018-09-04T04:35:01.560Z,1010.50
2018-09-04T04:36:01.311Z,1010.50
2018-09-04T04:37:01.280Z,1010.51
2018-09-04T04:38:01.277Z,1010.52
2018-09-04T04:39:01.262Z,1010.53
2018-09-04T04:40:01.264Z,1010.53
2018-09-04T04:41:01.218Z,1010.49
2018-09-04T04:42:01.207Z,1010.53
2018-09-04T04:43:01.187Z,1010.55
2018-09-04T04:44:01.173Z,1010.53
2018-09-04T04:45:01.155Z,1010.49
2018-09-04T04:46:01.137Z,1010.48
2018-09-04T04:47:01.119Z,1010.50
2018-09-04T04:48:01.179Z,1010.51
2018-09-04T04:49:01.091Z,1010.49
2018-09-04T04:50:01.076Z,1010.50
2018-09-04T04:51:01.057Z,1010.49
2018-09-04T04:52:01.063Z,1010.51
2018-09-04T04:53:01.024Z,1010.52
2018-09-04T04:54:01.016Z,1010.51
2018-09-04T04:55:00.998Z,1010.49
2018-09-04T04:56:00.979Z,1010.51
2018-09-04T04:57:00.970Z,1010.53
2018-09-04T04:58:00.948Z,1010.52
2018-09-04T04:59:00.931Z,1010.53
2018-09-04T05:00:00.914Z,1010.53
2018-09-04T05:01:00.899Z,1010.55
2018-09-04T05:02:00.890Z,1010.55
2018-09-04T05:03:00.862Z,1010.53
2018-09-04T05:04:00.852Z,1010.56
2018-09-04T05:05:00.841Z,1010.59
2018-09-04T05:06:00.824Z,1010.63
2018-09-04T05:07:00.801Z,1010.65
2018-09-04T05:08:00.786Z,1010.66
2018-09-04T05:09:00.770Z,1010.59
2018-09-04T05:10:00.755Z,1010.62
2018-09-04T05:11:00.767Z,1010.62
2018-09-04T05:12:00.730Z,1010.62
2018-09-04T05:13:00.714Z,1010.66
2018-09-04T05:14:00.693Z,1010.64
2018-09-04T05:15:00.677Z,1010.65
2018-09-04T05:16:00.658Z,1010.64
2018-09-04T05:17:00.646Z,1010.64
2018-09-04T05:18:00.630Z,1010.65
2018-09-04T05:19:00.611Z,1010.66
2018-09-04T05:20:00.597Z,1010.62
2018-09-04T05:21:00.581Z,1010.64
2018-09-04T05:22:00.565Z,1010.65
2018-09-04T05:23:00.549Z,1010.69
2018-09-04T05:24:00.537Z,1010.68
2018-09-04T05:25:00.513Z,1010.66
2018-09-04T05:26:00.497Z,1010.68
2018-09-04T05:27:00.483Z,1010.68
2018-09-04T05:28:00.470Z,1010.66
2018-09-04T05:29:00.454Z,1010.70
2018-09-04T05:30:00.440Z,1010.64
2018-09-04T05:31:00.420Z,1010.66
2018-09-04T05:32:00.408Z,1010.67
2018-09-04T05:33:00.387Z,1010.69
2018-09-04T05:34:00.371Z,1010.68
2018-09-04T05:35:00.360Z,1010.68
2018-09-04T05:36:00.339Z,1010.69
2018-09-04T05:37:00.339Z,1010.71
2018-09-04T05:38:00.312Z,1010.68
2018-09-04T05:39:00.294Z,1010.68
2018-09-04T05:40:00.276Z,1010.72
2018-09-04T05:41:00.262Z,1010.75
2018-09-04T05:42:00.254Z,1010.76
2018-09-04T05:43:00.231Z,1010.77
2018-09-04T05:44:00.216Z,1010.80
2018-09-04T05:45:00.196Z,1010.76
2018-09-04T05:46:00.184Z,1010.74
2018-09-04T05:47:00.164Z,1010.75
2018-09-04T05:48:00.148Z,1010.75
2018-09-04T05:49:00.143Z,1010.76
2018-09-04T05:50:00.120Z,1010.77
2018-09-04T05:51:00.104Z,1010.78
2018-09-04T05:52:00.086Z,1010.82
2018-09-04T05:53:00.077Z,1010.81
2018-09-04T05:54:00.059Z,1010.83
2018-09-04T05:55:00.038Z,1010.83
2018-09-04T05:56:00.019Z,1010.86
2018-09-04T05:57:00.010Z,1010.84
2018-09-04T05:57:59.990Z,1010.85
2018-09-04T05:58:59.985Z,1010.85
2018-09-04T05:59:59.954Z,1010.88
2018-09-04T06:00:59.940Z,1010.91
2018-09-04T06:01:59.927Z,1010.89
2018-09-04T06:02:59.911Z,1010.85
2018-09-04T06:03:59.894Z,1010.83
2018-09-04T06:04:59.881Z,1010.77
2018-09-04T06:05:59.864Z,1010.77
2018-09-04T06:06:59.852Z,1010.74
2018-09-04T06:07:59.834Z,1010.73
2018-09-04T06:08:59.819Z,1010.74
2018-09-04T06:09:59.798Z,1010.75
2018-09-04T06:10:59.783Z,1010.77
2018-09-04T06:11:59.772Z,1010.77
2018-09-04T06:12:59.751Z,1010.80
2018-09-04T06:13:59.749Z,1010.80
2018-09-04T06:14:59.718Z,1010.82
2018-09-04T06:15:59.704Z,1010.82
2018-09-04T06:16:59.687Z,1010.81
2018-09-04T06:17:59.674Z,1010.84
2018-09-04T06:18:59.656Z,1010.88
2018-09-04T06:19:59.658Z,1010.88
2018-09-04T06:20:59.625Z,1010.89
2018-09-04T06:21:59.607Z,1010.91
2018-09-04T06:22:59.593Z,1010.89
2018-09-04T06:23:59.577Z,1010.88
2018-09-04T06:24:59.564Z,1010.88
2018-09-04T06:25:59.546Z,1010.86
2018-09-04T06:26:59.530Z,1010.89
2018-09-04T06:27:59.515Z,1010.91
2018-09-04T06:28:59.502Z,1010.90
2018-09-04T06:29:59.485Z,1010.90
2018-09-04T06:30:59.468Z,1010.94
2018-09-04T06:31:59.455Z,1010.91
2018-09-04T06:32:59.437Z,1010.92
2018-09-04T06:33:59.478Z,1010.90
2018-09-04T06:34:59.408Z,1010.92
2018-09-04T06:35:59.392Z,1010.91
2018-09-04T06:36:59.379Z,1010.94
2018-09-04T06:37:59.359Z,1010.93
2018-09-04T06:38:59.352Z,1010.93
2018-09-04T06:39:59.329Z,1010.94
2018-09-04T06:40:59.309Z,1010.93
2018-09-04T06:41:59.298Z,1010.94
2018-09-04T06:42:59.285Z,1010.92
2018-09-04T06:43:59.272Z,1010.92
2018-09-04T06:44:59.248Z,1010.98
2018-09-04T06:45:59.233Z,1010.97
2018-09-04T06:46:59.219Z,1010.98
2018-09-04T06:47:59.202Z,1011.00
2018-09-04T06:48:59.235Z,1011.02
2018-09-04T06:49:59.171Z,1011.01
2018-09-04T06:50:59.157Z,1011.01
2018-09-04T06:51:59.143Z,1011.05
2018-09-04T06:52:59.129Z,1011.06
2018-09-04T06:53:59.109Z,1011.03
2018-09-04T06:54:59.094Z,1011.06
2018-09-04T06:55:59.076Z,1011.05
2018-09-04T06:56:59.063Z,1011.06
2018-09-04T06:57:59.170Z,1011.06
2018-09-04T06:58:59.033Z,1011.06
2018-09-04T06:59:59.016Z,1011.09
2018-09-04T07:00:59.010Z,1011.08
2018-09-04T07:01:58.987Z,1011.07
2018-09-04T07:02:58.969Z,1011.11
2018-09-04T07:03:58.961Z,1011.12
2018-09-04T07:04:58.941Z,1011.09
2018-09-04T07:05:58.969Z,1011.12
2018-09-04T07:06:58.910Z,1011.11
2018-09-04T07:07:58.893Z,1011.13
2018-09-04T07:08:58.878Z,1011.12
2018-09-04T07:09:58.862Z,1011.11
2018-09-04T07:10:58.853Z,1011.14
2018-09-04T07:11:58.832Z,1011.12
2018-09-04T07:12:58.812Z,1011.17
2018-09-04T07:13:58.800Z,1011.13
2018-09-04T07:14:58.817Z,1011.17
2018-09-04T07:15:58.766Z,1011.16
2018-09-04T07:16:58.812Z,1011.14
2018-09-04T07:17:58.742Z,1011.17
2018-09-04T07:18:58.721Z,1011.15
2018-09-04T07:19:58.707Z,1011.16
2018-09-04T07:20:58.689Z,1011.19
2018-09-04T07:21:58.673Z,1011.18
2018-09-04T07:22:58.658Z,1011.14
2018-09-04T07:23:58.649Z,1011.21
2018-09-04T07:24:58.636Z,1011.17
2018-09-04T07:25:58.612Z,1011.20
2018-09-04T07:26:58.600Z,1011.21
2018-09-04T07:27:58.581Z,1011.24
2018-09-04T07:28:58.568Z,1011.26
2018-09-04T07:29:58.551Z,1011.24
2018-09-04T07:30:58.536Z,1011.26
2018-09-04T07:31:58.520Z,1011.30
2018-09-04T07:32:58.503Z,1011.30
2018-09-04T07:33:58.489Z,1011.32
2018-09-04T07:34:58.473Z,1011.32
2018-09-04T07:35:58.459Z,1011.29
2018-09-04T07:36:58.454Z,1011.29
2018-09-04T07:37:58.427Z,1011.29
2018-09-04T07:38:58.422Z,1011.29
2018-09-04T07:39:58.403Z,1011.28
2018-09-04T07:40:58.379Z,1011.26
2018-09-04T07:41:58.480Z,1011.24
2018-09-04T07:42:58.350Z,1011.24
2018-09-04T07:43:58.337Z,1011.28
2018-09-04T07:44:58.321Z,1011.26
2018-09-04T07:45:58.309Z,1011.26
2018-09-04T07:46:58.288Z,1011.32
2018-09-04T07:47:58.272Z,1011.29
2018-09-04T07:48:58.259Z,1011.32
2018-09-04T07:49:58.245Z,1011.29
2018-09-04T07:50:58.227Z,1011.31
2018-09-04T07:51:58.215Z,1011.34
2018-09-04T07:52:58.200Z,1011.33
2018-09-04T07:53:58.182Z,1011.32
2018-09-04T07:54:58.170Z,1011.31
2018-09-04T07:55:58.153Z,1011.31
2018-09-04T07:56:58.138Z,1011.31
2018-09-04T07:57:58.119Z,1011.29
2018-09-04T07:58:58.107Z,1011.30
2018-09-04T07:59:58.089Z,1011.27
2018-09-04T08:00:58.161Z,1011.28
2018-09-04T08:01:58.064Z,1011.28
2018-09-04T08:02:58.043Z,1011.29
2018-09-04T08:03:58.034Z,1011.29
2018-09-04T08:04:58.016Z,1011.31
2018-09-04T08:05:58.000Z,1011.31
2018-09-04T08:06:57.984Z,1011.32
2018-09-04T08:07:57.969Z,1011.34
2018-09-04T08:08:57.954Z,1011.36
2018-09-04T08:09:57.944Z,1011.30
2018-09-04T08:10:57.926Z,1011.30
2018-09-04T08:11:57.907Z,1011.30
2018-09-04T08:12:57.894Z,1011.27
2018-09-04T08:13:57.884Z,1011.31
2018-09-04T08:14:57.866Z,1011.34
2018-09-04T08:15:57.853Z,1011.28
2018-09-04T08:16:57.835Z,1011.31
2018-09-04T08:17:57.818Z,1011.30
2018-09-04T08:18:57.803Z,1011.32
2018-09-04T08:19:57.813Z,1011.30
2018-09-04T08:20:57.879Z,1011.33
2018-09-04T08:21:57.763Z,1011.33
2018-09-04T08:22:57.744Z,1011.36
2018-09-04T08:23:57.726Z,1011.36
2018-09-04T08:24:57.713Z,1011.37
2018-09-04T08:25:57.760Z,1011.35
2018-09-04T08:26:57.683Z,1011.36
2018-09-04T08:27:57.671Z,1011.38
2018-09-04T08:28:57.655Z,1011.38
2018-09-04T08:29:57.636Z,1011.42
2018-09-04T08:30:57.623Z,1011.43
2018-09-04T08:31:57.611Z,1011.43
2018-09-04T08:32:57.692Z,1011.43
2018-09-04T08:33:57.584Z,1011.45
2018-09-04T08:34:57.565Z,1011.47
2018-09-04T08:35:57.566Z,1011.48
2018-09-04T08:36:57.536Z,1011.49
2018-09-04T08:37:57.528Z,1011.48
2018-09-04T08:38:57.505Z,1011.49
2018-09-04T08:39:57.526Z,1011.48
2018-09-04T08:40:57.477Z,1011.46
2018-09-04T08:41:57.460Z,1011.49
2018-09-04T08:42:57.451Z,1011.48
2018-09-04T08:43:57.434Z,1011.50
2018-09-04T08:44:57.416Z,1011.49
2018-09-04T08:45:57.410Z,1011.45
2018-09-04T08:46:57.386Z,1011.47
2018-09-04T08:47:57.379Z,1011.43
2018-09-04T08:48:57.359Z,1011.43
2018-09-04T08:49:57.348Z,1011.41
2018-09-04T08:50:57.336Z,1011.43
2018-09-04T08:51:57.312Z,1011.43
2018-09-04T08:52:57.299Z,1011.41
2018-09-04T08:53:57.294Z,1011.40
2018-09-04T08:54:57.272Z,1011.41
2018-09-04T08:55:57.257Z,1011.40
2018-09-04T08:56:57.240Z,1011.40
2018-09-04T08:57:57.229Z,1011.41
2018-09-04T08:58:57.209Z,1011.40
2018-09-04T08:59:57.195Z,1011.44
2018-09-04T09:00:57.185Z,1011.40
2018-09-04T09:01:57.170Z,1011.37
2018-09-04T09:02:57.154Z,1011.37
2018-09-04T09:03:57.139Z,1011.40
2018-09-04T09:04:57.126Z,1011.44
2018-09-04T09:05:57.114Z,1011.39
2018-09-04T09:06:57.100Z,1011.38
2018-09-04T09:07:57.086Z,1011.40
2018-09-04T09:08:57.069Z,1011.41
2018-09-04T09:09:57.077Z,1011.42
2018-09-04T09:10:57.041Z,1011.42
2018-09-04T09:11:57.031Z,1011.47
2018-09-04T09:12:57.017Z,1011.46
2018-09-04T09:13:57.003Z,1011.47
2018-09-04T09:14:56.985Z,1011.45
2018-09-04T09:15:56.972Z,1011.45
2018-09-04T09:16:56.959Z,1011.48
2018-09-04T09:17:56.943Z,1011.48
2018-09-04T09:18:56.925Z,1011.46
2018-09-04T09:19:56.912Z,1011.45
2018-09-04T09:20:56.899Z,1011.45
2018-09-04T09:21:56.885Z,1011.43
2018-09-04T09:22:56.905Z,1011.42
2018-09-04T09:23:56.855Z,1011.40
2018-09-04T09:24:56.841Z,1011.38
2018-09-04T09:25:56.827Z,1011.41
2018-09-04T09:26:56.815Z,1011.36
2018-09-04T09:27:56.808Z,1011.37
2018-09-04T09:28:56.787Z,1011.34
2018-09-04T09:29:56.772Z,1011.32
2018-09-04T09:30:56.758Z,1011.34
2018-09-04T09:31:56.742Z,1011.31
2018-09-04T09:32:56.728Z,1011.29
2018-09-04T09:33:56.717Z,1011.26
2018-09-04T09:34:56.705Z,1011.29
2018-09-04T09:35:56.684Z,1011.27
2018-09-04T09:36:56.743Z,1011.23
2018-09-04T09:37:56.663Z,1011.25
2018-09-04T09:38:56.645Z,1011.25
2018-09-04T09:39:56.634Z,1011.27
2018-09-04T09:40:56.622Z,1011.22
2018-09-04T09:41:56.606Z,1011.23
2018-09-04T09:42:56.594Z,1011.28
2018-09-04T09:43:56.574Z,1011.27
2018-09-04T09:44:56.565Z,1011.27
2018-09-04T09:45:56.551Z,1011.24
2018-09-04T09:46:56.544Z,1011.25
2018-09-04T09:47:56.524Z,1011.26
2018-09-04T09:48:56.513Z,1011.24
2018-09-04T09:49:56.494Z,1011.24
2018-09-04T09:50:56.481Z,1011.22
2018-09-04T09:51:56.476Z,1011.23
2018-09-04T09:52:56.460Z,1011.24
2018-09-04T09:53:56.465Z,1011.21
2018-09-04T09:54:56.422Z,1011.22
2018-09-04T09:55:56.411Z,1011.18
2018-09-04T09:56:56.396Z,1011.18
2018-09-04T09:57:56.382Z,1011.21
2018-09-04T09:58:56.368Z,1011.21
2018-09-04T09:59:56.476Z,1011.19
2018-09-04T10:00:56.353Z,1011.23
2018-09-04T10:01:56.332Z,1011.23
2018-09-04T10:02:56.315Z,1011.27
2018-09-04T10:03:56.342Z,1011.27
2018-09-04T10:04:56.296Z,1011.29
2018-09-04T10:05:56.313Z,1011.23
2018-09-04T10:06:56.261Z,1011.20
2018-09-04T10:07:56.302Z,1011.23
2018-09-04T10:08:56.234Z,1011.24
2018-09-04T10:09:56.290Z,1011.23
2018-09-04T10:10:56.204Z,1011.25
2018-09-04T10:11:56.189Z,1011.23
2018-09-04T10:12:56.178Z,1011.29
2018-09-04T10:13:56.178Z,1011.26
2018-09-04T10:14:56.149Z,1011.28
2018-09-04T10:15:56.148Z,1011.28
2018-09-04T10:16:56.123Z,1011.25
2018-09-04T10:17:56.111Z,1011.24
2018-09-04T10:18:56.101Z,1011.22
2018-09-04T10:19:56.241Z,1011.20
2018-09-04T10:20:56.070Z,1011.22
2018-09-04T10:21:56.061Z,1011.22
2018-09-04T10:22:56.041Z,1011.19
2018-09-04T10:23:56.035Z,1011.18
2018-09-04T10:24:56.018Z,1011.22
2018-09-04T10:25:56.013Z,1011.20
2018-09-04T10:26:55.997Z,1011.19
2018-09-04T10:27:55.978Z,1011.18
2018-09-04T10:28:55.971Z,1011.13
2018-09-04T10:29:55.957Z,1011.16
2018-09-04T10:30:55.951Z,1011.10
2018-09-04T10:31:55.935Z,1011.08
2018-09-04T10:32:55.910Z,1011.05
2018-09-04T10:33:55.898Z,1011.01
2018-09-04T10:34:55.889Z,1011.02
2018-09-04T10:35:55.873Z,1011.03
2018-09-04T10:36:55.874Z,1011.08
2018-09-04T10:37:55.850Z,1011.06
2018-09-04T10:38:55.831Z,1011.07
2018-09-04T10:39:55.825Z,1011.08
2018-09-04T10:40:55.806Z,1011.08
2018-09-04T10:41:55.796Z,1011.09
2018-09-04T10:42:55.784Z,1011.09
2018-09-04T10:43:55.774Z,1011.13
2018-09-04T10:44:55.755Z,1011.08
2018-09-04T10:45:55.743Z,1011.07
2018-09-04T10:46:55.729Z,1011.05
2018-09-04T10:47:55.718Z,1011.05
2018-09-04T10:48:55.705Z,1011.05
2018-09-04T10:49:55.688Z,1011.08
2018-09-04T10:50:55.679Z,1011.06
2018-09-04T10:51:55.672Z,1011.08
2018-09-04T10:52:55.650Z,1011.09
2018-09-04T10:53:55.636Z,1011.10
2018-09-04T10:54:55.628Z,1011.09
2018-09-04T10:55:55.621Z,1011.12
2018-09-04T10:56:55.609Z,1011.09
2018-09-04T10:57:55.590Z,1011.11
2018-09-04T10:58:55.573Z,1011.07
2018-09-04T10:59:55.566Z,1011.11
2018-09-04T11:00:55.552Z,1011.06
2018-09-04T11:01:55.535Z,1011.07
2018-09-04T11:02:55.525Z,1011.04
2018-09-04T11:03:55.504Z,1011.06
2018-09-04T11:04:55.498Z,1011.04
2018-09-04T11:05:55.484Z,1011.04
2018-09-04T11:06:55.479Z,1011.04
2018-09-04T11:07:55.462Z,1011.04
2018-09-04T11:08:55.484Z,1011.05
2018-09-04T11:09:55.594Z,1011.06
2018-09-04T11:10:55.418Z,1011.05
2018-09-04T11:11:55.409Z,1011.07
2018-09-04T11:12:55.394Z,1011.05
2018-09-04T11:13:55.384Z,1011.02
2018-09-04T11:14:55.366Z,1011.01
2018-09-04T11:15:55.354Z,1011.02
2018-09-04T11:16:55.343Z,1010.99
2018-09-04T11:17:55.330Z,1011.00
2018-09-04T11:18:55.320Z,1011.00
2018-09-04T11:19:55.305Z,1011.03
2018-09-04T11:20:55.294Z,1011.02
2018-09-04T11:21:55.288Z,1011.02
2018-09-04T11:22:55.263Z,1011.01
2018-09-04T11:23:55.251Z,1011.03
2018-09-04T11:24:55.239Z,1011.03
2018-09-04T11:25:55.227Z,1011.04
2018-09-04T11:26:55.218Z,1011.00
2018-09-04T11:27:55.200Z,1010.99
2018-09-04T11:28:55.197Z,1010.96
2018-09-04T11:29:55.174Z,1010.97
2018-09-04T11:30:55.162Z,1010.94
2018-09-04T11:31:55.152Z,1010.94
2018-09-04T11:32:55.140Z,1010.94
2018-09-04T11:33:55.137Z,1010.94
2018-09-04T11:34:55.115Z,1010.93
2018-09-04T11:35:55.101Z,1010.98
2018-09-04T11:36:55.083Z,1010.97
2018-09-04T11:37:55.074Z,1010.92
2018-09-04T11:38:55.060Z,1010.95
2018-09-04T11:39:55.051Z,1010.93
2018-09-04T11:40:55.044Z,1010.89
2018-09-04T11:41:55.024Z,1010.84
2018-09-04T11:42:55.009Z,1010.86
2018-09-04T11:43:54.999Z,1010.89
2018-09-04T11:44:54.995Z,1010.92
2018-09-04T11:45:54.975Z,1010.87
2018-09-04T11:46:54.997Z,1010.90
2018-09-04T11:47:54.955Z,1010.93
2018-09-04T11:48:54.940Z,1010.91
2018-09-04T11:49:54.926Z,1010.89
2018-09-04T11:50:54.912Z,1010.90
2018-09-04T11:51:54.909Z,1010.86
2018-09-04T11:52:54.887Z,1010.85
2018-09-04T11:53:54.880Z,1010.79
2018-09-04T11:54:54.870Z,1010.83
2018-09-04T11:55:54.846Z,1010.80
2018-09-04T11:56:54.834Z,1010.78
2018-09-04T11:57:54.825Z,1010.75
2018-09-04T11:58:54.809Z,1010.77
2018-09-04T11:59:54.801Z,1010.77
2018-09-04T12:00:54.785Z,1010.78
2018-09-04T12:01:54.778Z,1010.79
2018-09-04T12:02:54.764Z,1010.77
2018-09-04T12:03:54.762Z,1010.77
2018-09-04T12:04:54.742Z,1010.81
2018-09-04T12:05:54.819Z,1010.81
2018-09-04T12:06:54.715Z,1010.79
2018-09-04T12:07:54.698Z,1010.82
2018-09-04T12:08:54.696Z,1010.85
2018-09-04T12:09:54.672Z,1010.83
2018-09-04T12:10:54.669Z,1010.82
2018-09-04T12:11:54.651Z,1010.78
2018-09-04T12:12:54.650Z,1010.75
2018-09-04T12:13:54.623Z,1010.80
2018-09-04T12:14:54.615Z,1010.79
2018-09-04T12:15:54.603Z,1010.83
2018-09-04T12:16:54.596Z,1010.80
2018-09-04T12:17:54.577Z,1010.81
2018-09-04T12:18:54.592Z,1010.79
2018-09-04T12:19:54.553Z,1010.85
2018-09-04T12:20:54.658Z,1010.80
2018-09-04T12:21:54.527Z,1010.77
2018-09-04T12:22:54.516Z,1010.76
2018-09-04T12:23:54.506Z,1010.80
2018-09-04T12:24:54.608Z,1010.75
2018-09-04T12:25:54.479Z,1010.78
2018-09-04T12:26:54.472Z,1010.80
2018-09-04T12:27:54.453Z,1010.78